createdAt,value
2022-09-17T00:00:14.298Z,12.00
2022-09-17T00:05:23.224Z,12.00
2022-09-17T00:10:51.214Z,12.00
2022-09-17T00:15:59.110Z,12.00
2022-09-17T00:21:07.556Z,12.00
2022-09-17T00:26:16.255Z,12.00
2022-09-17T00:31:25.935Z,12.00
2022-09-17T00:36:37.396Z,12.00
2022-09-17T00:41:47.017Z,11.90
2022-09-17T00:46:55.609Z,12.00
2022-09-17T00:52:10.497Z,11.80
2022-09-17T00:57:18.669Z,11.60
2022-09-17T01:02:28.226Z,11.70
2022-09-17T01:08:03.393Z,11.60
2022-09-17T01:13:27.300Z,11.60
2022-09-17T01:18:51.812Z,11.50
2022-09-17T01:24:15.622Z,11.30
2022-09-17T01:29:44.630Z,11.20
2022-09-17T01:35:44.350Z,11.20
2022-09-17T01:40:56.615Z,11.20
2022-09-17T01:51:38.853Z,11.10
2022-09-17T01:56:50.258Z,11.30
2022-09-17T02:02:04.668Z,11.20
2022-09-17T02:07:20.505Z,11.40
2022-09-17T02:12:34.646Z,11.00
2022-09-17T02:17:57.406Z,10.90
2022-09-17T02:23:09.531Z,11.10
2022-09-17T02:28:24.723Z,11.20
2022-09-17T02:33:34.663Z,11.40
2022-09-17T02:38:45.883Z,11.20
2022-09-17T02:43:59.873Z,11.10
2022-09-17T02:49:19.967Z,11.00
2022-09-17T02:54:56.054Z,11.00
2022-09-17T03:05:39.385Z,11.00
2022-09-17T03:10:46.072Z,11.00
2022-09-17T03:15:52.828Z,11.10
2022-09-17T03:20:59.639Z,11.10
2022-09-17T03:26:06.416Z,10.90
2022-09-17T03:31:13.578Z,10.90
2022-09-17T03:36:20.647Z,11.00
2022-09-17T03:41:29.800Z,11.00
2022-09-17T03:46:36.914Z,10.80
2022-09-17T03:51:44.704Z,10.80
2022-09-17T03:56:51.401Z,10.90
2022-09-17T04:01:58.152Z,10.90
2022-09-17T04:07:04.957Z,10.90
2022-09-17T04:12:11.733Z,10.90
2022-09-17T04:17:19.417Z,11.00
2022-09-17T04:22:26.787Z,10.80
2022-09-17T04:27:34.212Z,10.90
2022-09-17T04:32:40.967Z,10.90
2022-09-17T04:37:57.538Z,11.00
2022-09-17T04:43:04.761Z,10.90
2022-09-17T04:48:11.467Z,10.80
2022-09-17T04:53:19.127Z,10.90
2022-09-17T04:58:26.663Z,10.60
2022-09-17T05:03:33.360Z,10.60
2022-09-17T05:08:40.465Z,10.60
2022-09-17T05:13:47.223Z,10.60
2022-09-17T05:18:53.955Z,10.60
2022-09-17T05:24:02.432Z,10.50
2022-09-17T05:29:09.133Z,10.60
2022-09-17T05:34:15.799Z,10.50
2022-09-17T05:39:24.062Z,10.50
2022-09-17T05:44:30.669Z,10.40
2022-09-17T05:49:39.297Z,10.30
2022-09-17T05:54:47.507Z,10.30
2022-09-17T05:59:54.172Z,10.40
2022-09-17T06:05:02.378Z,10.30
2022-09-17T06:10:10.191Z,10.40
2022-09-17T06:15:16.867Z,10.40
2022-09-17T06:20:25.281Z,10.40
2022-09-17T06:25:32.102Z,10.60
2022-09-17T06:30:39.696Z,10.70
2022-09-17T06:35:46.540Z,10.60
2022-09-17T06:40:54.717Z,10.50
2022-09-17T06:46:06.691Z,10.60
2022-09-17T06:51:15.273Z,10.30
2022-09-17T06:56:21.931Z,10.50
2022-09-17T07:01:28.719Z,10.70
2022-09-17T07:06:35.973Z,10.50
2022-09-17T07:11:42.858Z,10.50
2022-09-17T07:16:49.533Z,10.40
2022-09-17T07:21:57.157Z,10.40
2022-09-17T07:27:04.561Z,10.30
2022-09-17T07:32:11.273Z,10.40
2022-09-17T07:37:21.889Z,10.50
2022-09-17T07:42:29.021Z,10.70
2022-09-17T07:47:41.982Z,10.80
2022-09-17T07:52:51.031Z,10.80
2022-09-17T07:57:58.928Z,10.90
2022-09-17T08:03:07.254Z,11.00
2022-09-17T08:08:17.700Z,10.80
2022-09-17T08:13:23.282Z,10.60
2022-09-17T08:18:34.908Z,10.60
2022-09-17T08:23:47.663Z,10.70
2022-09-17T08:28:57.724Z,10.70
2022-09-17T08:34:24.608Z,10.60
2022-09-17T08:39:31.335Z,10.60
2022-09-17T08:44:49.140Z,10.50
2022-09-17T08:50:06.810Z,10.50
2022-09-17T08:55:26.673Z,10.70
2022-09-17T09:00:43.861Z,10.60
2022-09-17T09:05:57.126Z,10.50
2022-09-17T09:11:17.123Z,10.40
2022-09-17T09:16:28.038Z,10.50
2022-09-17T09:22:17.687Z,10.60
2022-09-17T09:27:41.948Z,10.50
2022-09-17T09:33:19.399Z,10.40
2022-09-17T09:38:36.620Z,10.40
2022-09-17T09:44:05.686Z,10.50
2022-09-17T09:49:34.971Z,10.30
2022-09-17T09:54:59.274Z,10.10
2022-09-17T10:00:38.998Z,10.00
2022-09-17T10:06:14.993Z,9.80
2022-09-17T10:11:26.410Z,9.80
2022-09-17T10:16:34.731Z,9.90
2022-09-17T10:21:45.183Z,9.70
2022-09-17T10:26:54.106Z,9.50
2022-09-17T10:32:03.234Z,9.40
2022-09-17T10:37:31.109Z,9.40
2022-09-17T10:42:37.818Z,9.50
2022-09-17T10:47:46.731Z,9.70
2022-09-17T10:53:00.198Z,9.90
2022-09-17T10:58:42.389Z,10.20
2022-09-17T11:04:04.339Z,10.40
2022-09-17T11:09:38.468Z,10.10
2022-09-17T11:15:04.902Z,9.70
2022-09-17T11:20:54.408Z,9.80
2022-09-17T11:26:34.228Z,9.60
2022-09-17T11:32:00.743Z,9.60
2022-09-17T11:37:31.194Z,9.90
2022-09-17T11:42:46.367Z,10.20
2022-09-17T11:48:01.892Z,10.30
2022-09-17T11:53:41.058Z,10.40
2022-09-17T11:58:55.259Z,10.60
2022-09-17T12:04:29.667Z,10.60
2022-09-17T12:09:30.554Z,10.60
2022-09-17T12:15:09.005Z,10.20
2022-09-17T12:20:35.358Z,9.90
2022-09-17T12:26:04.353Z,10.30
2022-09-17T12:31:16.069Z,10.20
2022-09-17T12:36:39.186Z,10.30
2022-09-17T12:41:56.024Z,10.20
2022-09-17T12:47:21.994Z,9.90
2022-09-17T12:52:48.284Z,9.90
2022-09-17T12:58:24.472Z,9.90
2022-09-17T13:03:48.641Z,10.10
2022-09-17T13:09:40.655Z,9.80
2022-09-17T13:15:24.120Z,9.60
2022-09-17T13:26:02.013Z,9.10
2022-09-17T13:42:00.415Z,8.80
2022-09-17T13:52:50.993Z,9.50
2022-09-17T13:58:00.055Z,9.20
2022-09-17T14:03:41.128Z,9.10
2022-09-17T14:08:53.510Z,9.20
2022-09-17T14:14:17.278Z,9.30
2022-09-17T14:19:45.759Z,9.20
2022-09-17T14:24:56.667Z,9.40
2022-09-17T14:30:34.964Z,9.40
2022-09-17T14:35:50.325Z,9.40
2022-09-17T14:41:17.163Z,9.80
2022-09-17T14:46:48.897Z,9.80
2022-09-17T14:51:56.128Z,9.80
2022-09-17T14:57:13.081Z,9.90
2022-09-17T15:02:32.962Z,9.90
2022-09-17T15:07:44.262Z,9.90
2022-09-17T15:12:50.720Z,9.90
2022-09-17T15:17:57.455Z,9.80
2022-09-17T15:23:26.393Z,9.70
2022-09-17T15:28:40.412Z,10.10
2022-09-17T15:33:48.172Z,10.30
2022-09-17T15:38:54.808Z,10.20
2022-09-17T15:44:30.458Z,9.80
2022-09-17T15:49:38.881Z,9.70
2022-09-17T15:54:45.572Z,9.80
2022-09-17T15:59:52.604Z,10.10
2022-09-17T16:05:22.189Z,9.90
2022-09-17T16:10:28.873Z,9.70
2022-09-17T16:15:37.173Z,9.60
2022-09-17T16:20:44.454Z,9.50
2022-09-17T16:25:53.658Z,9.70
2022-09-17T16:31:01.652Z,9.60
2022-09-17T16:36:10.888Z,9.60
2022-09-17T16:41:17.688Z,9.40
2022-09-17T16:46:24.449Z,9.40
2022-09-17T16:51:31.244Z,9.30
2022-09-17T16:56:37.872Z,9.40
2022-09-17T17:01:44.648Z,9.30
2022-09-17T17:06:51.373Z,9.20
2022-09-17T17:11:58.023Z,9.30
2022-09-17T17:17:05.618Z,9.50
2022-09-17T17:22:12.339Z,9.40
2022-09-17T17:27:19.157Z,9.40
2022-09-17T17:32:26.738Z,9.20
2022-09-17T17:37:33.409Z,9.70
2022-09-17T17:42:42.897Z,9.30
2022-09-17T17:47:50.414Z,9.30
2022-09-17T17:53:01.433Z,9.20
2022-09-17T17:58:08.123Z,9.10
2022-09-17T18:03:15.854Z,9.20
2022-09-17T18:08:28.238Z,9.20
2022-09-17T18:13:38.455Z,9.00
2022-09-17T18:18:48.678Z,9.10
2022-09-17T18:23:58.308Z,9.10
2022-09-17T18:29:08.254Z,9.20
2022-09-17T18:34:19.427Z,9.20
2022-09-17T18:44:35.405Z,9.10
2022-09-17T18:49:42.517Z,9.30
2022-09-17T18:54:50.309Z,9.10
2022-09-17T18:59:58.587Z,9.30
2022-09-17T19:05:05.671Z,9.30
2022-09-17T19:10:13.473Z,9.40
2022-09-17T19:15:21.239Z,9.20
2022-09-17T19:20:30.498Z,9.30
2022-09-17T19:25:40.859Z,9.10
2022-09-17T19:30:48.401Z,9.30
2022-09-17T19:35:56.777Z,9.20
2022-09-17T19:41:10.379Z,9.20
2022-09-17T19:46:21.265Z,9.10
2022-09-17T19:51:34.356Z,9.00
2022-09-17T19:56:40.816Z,9.20
2022-09-17T20:01:50.283Z,9.00
2022-09-17T20:07:00.418Z,9.00
2022-09-17T20:12:08.619Z,9.00
2022-09-17T20:17:15.381Z,9.00
2022-09-17T20:22:22.818Z,9.10
2022-09-17T20:27:30.094Z,9.20
2022-09-17T20:32:37.143Z,9.10
2022-09-17T20:38:44.495Z,8.90
2022-09-17T20:42:53.173Z,9.10
2022-09-17T20:47:59.964Z,9.20
2022-09-17T20:53:06.737Z,9.00
2022-09-17T20:58:13.650Z,9.10
2022-09-17T21:03:23.457Z,8.60
2022-09-17T21:08:31.800Z,8.70
2022-09-17T21:13:40.008Z,8.80
2022-09-17T21:18:48.988Z,8.80
2022-09-17T21:23:55.888Z,8.70
2022-09-17T21:29:03.392Z,8.50
2022-09-17T21:34:15.022Z,8.50
2022-09-17T21:39:23.976Z,8.60
2022-09-17T21:44:30.726Z,8.60
2022-09-17T21:49:37.933Z,8.60
2022-09-17T21:54:45.409Z,8.60
2022-09-17T21:59:52.017Z,8.30
2022-09-17T22:04:59.909Z,8.20
2022-09-17T22:10:10.942Z,8.40
2022-09-17T22:15:17.773Z,8.70
2022-09-17T22:20:26.362Z,8.30
2022-09-17T22:25:34.286Z,8.10
2022-09-17T22:30:42.249Z,8.20
2022-09-17T22:35:49.773Z,7.80
2022-09-17T22:40:57.212Z,8.00
2022-09-17T22:46:17.019Z,7.90
2022-09-17T22:51:25.301Z,7.80
2022-09-17T22:56:33.220Z,7.70
2022-09-17T23:01:42.720Z,7.60
2022-09-17T23:07:01.703Z,7.60
2022-09-17T23:12:10.181Z,7.60
2022-09-17T23:17:17.761Z,7.40
2022-09-17T23:22:25.711Z,7.60
2022-09-17T23:27:32.536Z,7.50
2022-09-17T23:32:39.262Z,7.50
2022-09-17T23:37:46.323Z,7.40
2022-09-17T23:42:54.196Z,7.50
2022-09-17T23:48:02.547Z,7.40
2022-09-17T23:53:09.215Z,7.40
2022-09-17T23:58:17.186Z,7.50
